Dillingham, AK (99576)

3:12 AM AKDT on September 22, 2014 (GMT -0800)
Dillingham | Change Station
CLOSE
Current Station
Airport
Location: Dillingham,
Elevation: 95 ft
Nearby Weather Stations

Elev 95 ft 59.04 °N, 158.51 °W | Updated 16 minutes ago

Clear
Clear
36 °F
Feels Like 36 °F
N
0
Wind Variable Wind from North

Today
High -- | Low -- °F
--% Chance of Precip.
Yesterday
High -- | Low -- °F
Precip. -- in
8:18 AM 8:32 PM
Waning Crescent, 3% visible
Pressure 29.69 in
Visibility 10.0 miles
Clouds Clear
Dew Point 28 °F
Humidity 75%
Rainfall 0.00 in
Snow Depth 6 in , 0 in , 1 in
UV 0 out of 12
Pollen Not available.
Air Quality Not available.
Flu Activity Not available.
METAR PADL 221056Z 00000KT 10SM CLR 02/M02 A2969 RMK AO1

More Conditions Fewer Conditions

Pressure 29.69 in
Visibility 10.0 miles
Clouds Clear
Dew Point 28 °F
Humidity 75%
Rainfall 0.00 in
Snow Depth 6 in , 0 in , 1 in
UV 0 out of 12
Pollen Not available.
Air Quality Not available.
Flu Activity Not available.
METAR PADL 221056Z 00000KT 10SM CLR 02/M02 A2969 RMK AO1

More Conditions Fewer Conditions

10-Day Weather Forecast

Almanac

Astronomy

Sep. 22, 2014 Rise Set
Actual Time 8:18 AM AKDT 8:32 PM AKDT
Civil Twilight 7:38 AM AKDT 9:12 PM AKDT
Nautical Twilight 6:49 AM AKDT 10:01 PM AKDT
Astronomical Twilight 5:57 AM AKDT 10:53 PM AKDT
Moon 6:46 AM AKDT 7:51 PM AKDT
Length of Visible Light 13h 34m
Length of Day
12h 13m
Tomorrow will be 5m 11s shorter.
Waning Crescent, 3% of the Moon is Illuminated
Today
Waning Crescent
Sep 24
New
Oct 1
First Quarter
Oct 8
Full
Oct 15
Last Quarter

Today's Extremes

State Highs State Lows

Community

WunderPhotos

Upload Photos

1,755,409 photos uploaded!

Nearby

Snow Depth

Station Depth Elevation
Rocky Point 6 in 500 ft
Port Graham 0 in 300 ft
Grandview 1 in 1100 ft
Upper Chena 1 in 2850 ft
Atigun Pass 5 in 4800 ft

Earthquake Activity

City Distance Mag. Time & Date
No recent earthquake activity has been reported nearby.
Minimum magnitude displayed is 2.5.

Coastal Water Temperatures

Place Temperature
No Stations Reporting

Nearby Weather Stations